createdAt,value
2022-12-07T00:00:06.333Z,6.77
2022-12-07T00:02:52.043Z,6.20
2022-12-07T00:05:36.213Z,5.40
2022-12-07T00:08:20.223Z,4.97
2022-12-07T00:11:05.340Z,5.00
2022-12-07T00:13:53.422Z,4.33
2022-12-07T00:16:38.109Z,4.37
2022-12-07T00:19:23.570Z,3.73
2022-12-07T00:22:07.563Z,5.17
2022-12-07T00:24:51.527Z,4.23
2022-12-07T00:27:35.253Z,4.63
2022-12-07T00:30:19.176Z,4.20
2022-12-07T00:33:02.900Z,5.13
2022-12-07T00:35:48.006Z,5.20
2022-12-07T00:38:33.491Z,8.27
2022-12-07T00:41:19.236Z,6.67
2022-12-07T00:44:03.017Z,6.43
2022-12-07T00:46:47.530Z,6.50
2022-12-07T00:49:31.328Z,6.30
2022-12-07T00:52:16.808Z,5.70
2022-12-07T00:55:00.708Z,5.00
2022-12-07T00:57:44.666Z,4.70
2022-12-07T01:00:28.601Z,4.97
2022-12-07T01:03:14.796Z,4.47
2022-12-07T01:05:59.534Z,4.07
2022-12-07T01:08:45.175Z,4.33
2022-12-07T01:11:31.659Z,4.53
2022-12-07T01:14:15.602Z,5.20
2022-12-07T01:16:59.696Z,5.57
2022-12-07T01:19:44.011Z,6.10
2022-12-07T01:22:28.306Z,5.60
2022-12-07T01:25:14.587Z,5.00
2022-12-07T01:27:58.578Z,4.70
2022-12-07T01:30:42.571Z,5.17
2022-12-07T01:33:26.753Z,4.80
2022-12-07T01:36:16.411Z,4.63
2022-12-07T01:39:02.367Z,4.40
2022-12-07T01:41:47.826Z,4.40
2022-12-07T01:44:33.172Z,4.60
2022-12-07T01:47:17.264Z,4.43
2022-12-07T01:50:01.454Z,4.90
2022-12-07T01:52:51.081Z,6.17
2022-12-07T01:55:36.492Z,5.40
2022-12-07T01:58:23.194Z,5.10
2022-12-07T02:01:07.618Z,4.47
2022-12-07T02:03:51.914Z,4.20
2022-12-07T02:06:39.630Z,4.60
2022-12-07T02:09:23.780Z,4.30
2022-12-07T02:12:08.013Z,4.50
2022-12-07T02:14:54.521Z,4.83
2022-12-07T02:17:47.943Z,5.00
2022-12-07T02:20:35.821Z,5.40
2022-12-07T02:24:03.616Z,5.37
2022-12-07T02:27:10.750Z,6.03
2022-12-07T02:30:03.371Z,5.80
2022-12-07T02:32:57.721Z,5.07
2022-12-07T02:35:46.337Z,4.97
2022-12-07T02:38:37.169Z,5.20
2022-12-07T02:41:26.500Z,5.30
2022-12-07T02:44:15.287Z,5.20
2022-12-07T02:47:20.783Z,5.20
2022-12-07T02:50:06.279Z,5.27
2022-12-07T02:52:50.318Z,5.53
2022-12-07T02:55:44.274Z,5.23
2022-12-07T02:58:40.173Z,5.90
2022-12-07T03:01:33.005Z,6.00
2022-12-07T03:04:33.081Z,6.20
2022-12-07T03:07:27.049Z,6.53
2022-12-07T03:10:17.012Z,6.20
2022-12-07T03:13:07.361Z,6.23
2022-12-07T03:16:00.363Z,6.10
2022-12-07T03:18:48.933Z,6.47
2022-12-07T03:21:37.263Z,6.97
2022-12-07T03:24:24.267Z,6.70
2022-12-07T03:27:14.199Z,6.83
2022-12-07T03:30:04.349Z,7.10
2022-12-07T03:32:53.003Z,6.93
2022-12-07T03:35:42.311Z,7.20
2022-12-07T03:38:33.862Z,8.37
2022-12-07T03:41:24.336Z,12.77
2022-12-07T03:44:09.449Z,10.00
2022-12-07T03:47:04.282Z,8.90
2022-12-07T03:49:53.327Z,9.07
2022-12-07T03:52:43.312Z,7.77
2022-12-07T03:55:32.029Z,8.83
2022-12-07T03:58:19.753Z,9.77
2022-12-07T04:01:03.756Z,9.23
2022-12-07T04:03:47.842Z,9.73
2022-12-07T04:06:31.645Z,9.77
2022-12-07T04:09:16.177Z,10.10
2022-12-07T04:12:01.473Z,10.17
2022-12-07T04:14:45.220Z,10.40
2022-12-07T04:17:28.988Z,11.27
2022-12-07T04:20:14.227Z,13.00
2022-12-07T04:22:57.941Z,13.17
2022-12-07T04:25:42.223Z,11.73
2022-12-07T04:28:27.807Z,12.33
2022-12-07T04:31:11.627Z,12.27
2022-12-07T04:33:55.593Z,11.63
2022-12-07T04:36:40.163Z,11.70
2022-12-07T04:39:27.102Z,11.30
2022-12-07T04:42:10.836Z,16.37
2022-12-07T04:44:55.940Z,15.27
2022-12-07T04:47:39.719Z,18.63
2022-12-07T04:50:23.453Z,15.07
2022-12-07T04:53:07.121Z,15.73
2022-12-07T04:55:51.292Z,12.90
2022-12-07T04:58:35.010Z,11.17
2022-12-07T05:01:20.613Z,12.23
2022-12-07T05:04:04.715Z,12.67
2022-12-07T05:06:48.512Z,12.10
2022-12-07T05:09:32.248Z,12.47
2022-12-07T05:12:16.019Z,11.33
2022-12-07T05:14:59.737Z,12.23
2022-12-07T05:17:44.977Z,12.53
2022-12-07T05:20:28.693Z,13.90
2022-12-07T05:23:12.849Z,15.53
2022-12-07T05:25:56.669Z,17.03
2022-12-07T05:28:40.544Z,21.80
2022-12-07T05:31:25.642Z,20.30
2022-12-07T05:34:10.940Z,21.80
2022-12-07T05:36:54.752Z,17.63
2022-12-07T05:39:38.918Z,18.27
2022-12-07T05:42:22.849Z,18.93
2022-12-07T05:45:08.185Z,18.20
2022-12-07T05:47:51.966Z,18.70
2022-12-07T05:50:37.133Z,17.13
2022-12-07T05:53:23.262Z,19.07
2022-12-07T05:56:08.168Z,19.00
2022-12-07T05:59:09.558Z,19.93
2022-12-07T06:01:54.576Z,19.57
2022-12-07T06:04:40.459Z,17.00
2022-12-07T06:07:25.758Z,16.17
2022-12-07T06:10:10.557Z,18.07
2022-12-07T06:12:53.423Z,19.07
2022-12-07T06:15:38.342Z,20.47
2022-12-07T06:18:22.313Z,21.53
2022-12-07T06:21:06.588Z,26.20
2022-12-07T06:23:52.083Z,22.53
2022-12-07T06:26:36.132Z,21.77
2022-12-07T06:29:20.775Z,22.63
2022-12-07T06:32:05.953Z,26.17
2022-12-07T06:34:49.992Z,24.93
2022-12-07T06:37:34.089Z,25.97
2022-12-07T06:40:19.528Z,23.70
2022-12-07T06:43:03.447Z,25.00
2022-12-07T06:45:47.430Z,35.50
2022-12-07T06:48:31.488Z,29.97
2022-12-07T06:51:15.533Z,30.63
2022-12-07T06:53:59.641Z,33.80
2022-12-07T06:56:45.133Z,39.63
2022-12-07T06:59:29.195Z,43.23
2022-12-07T07:02:13.153Z,26.60
2022-12-07T07:04:57.147Z,20.70
2022-12-07T07:07:58.093Z,21.03
2022-12-07T07:10:45.064Z,19.63
2022-12-07T07:13:30.562Z,20.80
2022-12-07T07:16:14.817Z,20.80
2022-12-07T07:18:58.918Z,18.53
2022-12-07T07:21:43.001Z,17.27
2022-12-07T07:24:27.344Z,18.57
2022-12-07T07:27:11.265Z,21.23
2022-12-07T07:29:56.638Z,18.50
2022-12-07T07:32:41.243Z,17.13
2022-12-07T07:35:25.305Z,16.10
2022-12-07T07:38:09.696Z,17.47
2022-12-07T07:40:53.609Z,18.43
2022-12-07T07:43:37.458Z,22.90
2022-12-07T07:46:23.082Z,21.67
2022-12-07T07:49:07.167Z,18.60
2022-12-07T07:51:51.096Z,21.07
2022-12-07T07:54:35.289Z,16.43
2022-12-07T07:57:19.794Z,15.20
2022-12-07T08:00:05.076Z,14.93
2022-12-07T08:02:58.782Z,15.70
2022-12-07T08:05:42.814Z,13.40
2022-12-07T08:08:26.988Z,12.97
2022-12-07T08:11:12.076Z,12.83
2022-12-07T08:13:56.123Z,12.97
2022-12-07T08:16:40.267Z,15.23
2022-12-07T08:19:25.961Z,23.03
2022-12-07T08:22:09.943Z,11.93
2022-12-07T08:24:53.874Z,11.50
2022-12-07T08:27:37.848Z,14.13
2022-12-07T08:30:22.957Z,17.07
2022-12-07T08:33:06.956Z,12.23
2022-12-07T08:35:52.538Z,13.73
2022-12-07T08:38:37.196Z,12.13
2022-12-07T08:41:21.201Z,11.53
2022-12-07T08:44:05.177Z,10.57
2022-12-07T08:46:51.974Z,9.93
2022-12-07T08:49:39.344Z,9.40
2022-12-07T08:52:25.087Z,10.27
2022-12-07T08:55:11.599Z,12.80
2022-12-07T08:57:55.843Z,11.43
2022-12-07T09:00:39.863Z,10.30
2022-12-07T09:03:23.762Z,12.47
2022-12-07T09:06:08.650Z,12.80
2022-12-07T09:08:57.369Z,11.13
2022-12-07T09:11:41.528Z,9.80
2022-12-07T09:14:25.880Z,9.67
2022-12-07T09:17:10.786Z,10.77
2022-12-07T09:19:54.706Z,10.97
2022-12-07T09:22:38.721Z,12.23
2022-12-07T09:25:24.318Z,13.20
2022-12-07T09:28:08.529Z,14.27
2022-12-07T09:31:21.996Z,12.70
2022-12-07T09:33:57.711Z,13.10
2022-12-07T09:36:41.792Z,13.40
2022-12-07T09:39:25.805Z,16.53
2022-12-07T09:42:20.574Z,17.17
2022-12-07T09:45:06.833Z,15.33
2022-12-07T09:47:50.767Z,14.20
2022-12-07T09:50:34.597Z,16.53
2022-12-07T09:53:23.153Z,15.97
2022-12-07T09:56:07.718Z,14.60
2022-12-07T09:58:56.850Z,20.30
2022-12-07T10:01:41.592Z,14.93
2022-12-07T10:04:27.908Z,12.50
2022-12-07T10:07:11.764Z,12.03
2022-12-07T10:09:55.575Z,12.60
2022-12-07T10:12:56.364Z,11.97
2022-12-07T10:15:47.454Z,10.97
2022-12-07T10:18:33.376Z,18.90
2022-12-07T10:21:21.748Z,19.27
2022-12-07T10:24:07.688Z,13.40
2022-12-07T10:26:53.915Z,10.90
2022-12-07T10:29:41.078Z,10.77
2022-12-07T10:32:35.094Z,12.50
2022-12-07T10:35:25.966Z,12.67
2022-12-07T10:38:19.058Z,12.77
2022-12-07T10:41:07.648Z,12.63
2022-12-07T10:43:54.287Z,17.27
2022-12-07T10:47:20.023Z,12.67
2022-12-07T10:50:35.222Z,13.57
2022-12-07T10:53:33.034Z,11.60
2022-12-07T10:56:37.265Z,14.93
2022-12-07T10:59:55.383Z,11.40
2022-12-07T11:02:52.551Z,9.67
2022-12-07T11:05:45.438Z,10.30
2022-12-07T11:08:45.069Z,8.10
2022-12-07T11:11:36.315Z,10.07
2022-12-07T11:14:27.375Z,8.83
2022-12-07T11:17:18.039Z,9.53
2022-12-07T11:20:15.034Z,9.37
2022-12-07T11:23:06.484Z,9.80
2022-12-07T11:25:56.996Z,9.53
2022-12-07T11:29:01.381Z,10.97
2022-12-07T11:32:00.786Z,9.90
2022-12-07T11:34:53.230Z,10.77
2022-12-07T11:40:30.288Z,11.43
2022-12-07T11:43:22.601Z,10.23
2022-12-07T11:46:13.223Z,10.93
2022-12-07T11:49:05.006Z,11.43
2022-12-07T11:51:52.929Z,10.47
2022-12-07T11:54:43.247Z,10.63
2022-12-07T11:57:32.967Z,10.47
2022-12-07T12:00:19.279Z,10.87
2022-12-07T12:03:11.791Z,11.83
2022-12-07T12:05:56.866Z,20.63
2022-12-07T12:15:37.271Z,21.60
2022-12-07T12:18:37.153Z,14.07
2022-12-07T12:21:24.950Z,11.73
2022-12-07T12:24:15.983Z,10.30
2022-12-07T12:27:06.270Z,9.77
2022-12-07T12:29:55.869Z,9.77
2022-12-07T12:32:44.009Z,9.53
2022-12-07T12:35:34.013Z,9.10
2022-12-07T12:38:34.489Z,8.73
2022-12-07T12:42:09.725Z,9.70
2022-12-07T12:45:21.601Z,9.13
2022-12-07T12:48:29.398Z,9.77
2022-12-07T12:51:39.404Z,10.10
2022-12-07T12:54:26.738Z,9.67
2022-12-07T12:57:17.082Z,10.50
2022-12-07T13:00:04.809Z,13.07
2022-12-07T13:02:54.668Z,9.90
2022-12-07T13:05:40.122Z,10.13
2022-12-07T13:08:31.899Z,10.63
2022-12-07T13:11:21.875Z,10.63
2022-12-07T13:14:45.429Z,11.20
2022-12-07T13:18:01.932Z,11.90
2022-12-07T13:20:51.254Z,10.83
2022-12-07T13:23:38.260Z,11.43
2022-12-07T13:26:25.010Z,13.43
2022-12-07T13:29:14.526Z,20.37
2022-12-07T13:32:00.071Z,14.87
2022-12-07T13:34:44.925Z,15.33
2022-12-07T13:37:38.613Z,16.97
2022-12-07T13:40:26.271Z,12.60
2022-12-07T13:43:17.690Z,11.33
2022-12-07T13:46:02.572Z,11.27
2022-12-07T13:48:49.976Z,13.07
2022-12-07T13:51:37.983Z,12.03
2022-12-07T13:54:24.337Z,12.23
2022-12-07T13:57:09.305Z,11.77
2022-12-07T13:59:53.728Z,15.23
2022-12-07T14:02:44.093Z,16.00
2022-12-07T14:05:31.651Z,15.50
2022-12-07T14:08:25.954Z,14.47
2022-12-07T14:11:19.842Z,15.27
2022-12-07T14:14:05.214Z,13.90
2022-12-07T14:17:00.653Z,13.50
2022-12-07T14:19:51.676Z,12.97
2022-12-07T14:22:37.748Z,15.70
2022-12-07T14:25:23.748Z,18.13
2022-12-07T14:28:27.404Z,16.07
2022-12-07T14:31:22.640Z,19.00
2022-12-07T14:34:13.706Z,17.13
2022-12-07T14:36:57.648Z,15.77
2022-12-07T14:39:41.554Z,14.07
2022-12-07T14:42:29.285Z,17.93
2022-12-07T14:45:18.834Z,22.37
2022-12-07T14:54:17.978Z,14.97
2022-12-07T14:57:01.757Z,21.97
2022-12-07T14:59:45.667Z,20.27
2022-12-07T15:02:31.084Z,18.63
2022-12-07T15:05:16.439Z,18.80
2022-12-07T15:08:00.929Z,19.73
2022-12-07T15:10:44.785Z,17.53
2022-12-07T15:13:45.723Z,19.43
2022-12-07T15:16:40.717Z,20.20
2022-12-07T15:19:34.911Z,20.63
2022-12-07T15:22:18.722Z,25.40
2022-12-07T15:25:03.084Z,32.23
2022-12-07T15:27:47.014Z,33.90
2022-12-07T15:30:30.800Z,32.73
2022-12-07T15:33:15.718Z,34.43
2022-12-07T15:36:01.811Z,35.07
2022-12-07T15:39:12.597Z,36.47
2022-12-07T15:41:49.359Z,36.60
2022-12-07T15:44:50.799Z,33.37
2022-12-07T15:47:54.973Z,31.83
2022-12-07T15:50:40.800Z,32.10
2022-12-07T15:53:26.137Z,35.83
2022-12-07T15:56:10.603Z,34.30
2022-12-07T15:58:54.641Z,29.63
2022-12-07T16:01:38.525Z,32.43
2022-12-07T16:04:22.364Z,29.63
2022-12-07T16:07:06.580Z,35.80
2022-12-07T16:09:51.735Z,29.20
2022-12-07T16:12:35.569Z,31.77
2022-12-07T16:15:24.241Z,30.20
2022-12-07T16:18:09.030Z,28.60
2022-12-07T16:20:53.206Z,28.83
2022-12-07T16:23:37.302Z,32.20
2022-12-07T16:26:24.488Z,42.23
2022-12-07T16:29:08.639Z,67.93
2022-12-07T16:31:53.655Z,76.30
2022-12-07T16:34:37.799Z,63.97
2022-12-07T16:37:21.785Z,64.97
2022-12-07T16:40:06.567Z,47.93
2022-12-07T16:42:52.112Z,36.43
2022-12-07T16:45:36.605Z,32.60
2022-12-07T16:48:21.181Z,33.60
2022-12-07T16:51:07.237Z,34.27
2022-12-07T16:53:51.177Z,31.70
2022-12-07T16:56:35.072Z,38.07
2022-12-07T16:59:20.516Z,37.07
2022-12-07T17:02:04.858Z,34.30
2022-12-07T17:04:48.837Z,35.57
2022-12-07T17:07:32.906Z,33.13
2022-12-07T17:10:16.864Z,37.70
2022-12-07T17:13:00.770Z,48.20
2022-12-07T17:15:48.542Z,49.10
2022-12-07T17:18:35.605Z,83.40
2022-12-07T17:21:19.579Z,49.47
2022-12-07T17:24:04.747Z,166.20
2022-12-07T17:26:49.209Z,67.30
2022-12-07T17:29:33.131Z,43.43
2022-12-07T17:32:18.536Z,44.57
2022-12-07T17:35:02.608Z,38.93
2022-12-07T17:37:50.872Z,42.50
2022-12-07T17:40:35.051Z,43.43
2022-12-07T17:43:18.798Z,48.20
2022-12-07T17:46:08.511Z,31.97
2022-12-07T17:48:55.797Z,27.83
2022-12-07T17:51:56.983Z,28.53
2022-12-07T17:54:40.678Z,32.30
2022-12-07T17:57:24.815Z,27.03
2022-12-07T18:00:09.933Z,26.47
2022-12-07T18:02:57.166Z,29.73
2022-12-07T18:05:45.367Z,27.23
2022-12-07T18:08:29.210Z,27.30
2022-12-07T18:11:13.223Z,30.20
2022-12-07T18:13:56.986Z,26.63
2022-12-07T18:16:40.934Z,26.73
2022-12-07T18:19:24.813Z,26.27
2022-12-07T18:22:10.288Z,25.87
2022-12-07T18:24:55.263Z,24.67
2022-12-07T18:27:41.004Z,24.73
2022-12-07T18:30:49.501Z,25.20
2022-12-07T18:33:28.618Z,29.80
2022-12-07T18:36:13.150Z,38.53
2022-12-07T18:38:58.333Z,38.70
2022-12-07T18:41:43.459Z,30.17
2022-12-07T18:44:27.201Z,27.47
2022-12-07T18:47:11.027Z,26.90
2022-12-07T18:49:54.764Z,24.63
2022-12-07T18:52:38.855Z,26.93
2022-12-07T18:55:25.915Z,25.37
2022-12-07T18:58:09.833Z,25.30
2022-12-07T19:00:54.495Z,26.50
2022-12-07T19:03:39.904Z,25.87
2022-12-07T19:06:24.060Z,27.13
2022-12-07T19:09:08.094Z,24.77
2022-12-07T19:11:53.539Z,24.50
2022-12-07T19:14:39.692Z,28.33
2022-12-07T19:17:24.016Z,26.07
2022-12-07T19:20:10.669Z,25.10
2022-12-07T19:22:54.663Z,25.30
2022-12-07T19:25:38.725Z,23.03
2022-12-07T19:28:24.156Z,24.10
2022-12-07T19:31:08.482Z,25.27
2022-12-07T19:33:52.845Z,23.30
2022-12-07T19:36:37.265Z,22.50
2022-12-07T19:39:21.176Z,24.93
2022-12-07T19:42:05.678Z,26.13
2022-12-07T19:44:51.140Z,28.13
2022-12-07T19:47:35.056Z,26.10
2022-12-07T19:50:19.239Z,26.80
2022-12-07T19:53:03.313Z,24.23
2022-12-07T19:55:47.986Z,26.43
2022-12-07T19:58:31.661Z,29.87
2022-12-07T20:01:17.211Z,29.37
2022-12-07T20:04:01.542Z,28.97
2022-12-07T20:06:45.623Z,30.57
2022-12-07T20:09:30.059Z,30.73
2022-12-07T20:12:31.698Z,28.10
2022-12-07T20:15:15.701Z,29.90
2022-12-07T20:18:00.876Z,31.33
2022-12-07T20:20:54.476Z,29.57
2022-12-07T20:23:38.606Z,28.83
2022-12-07T20:26:22.538Z,28.80
2022-12-07T20:29:10.931Z,29.37
2022-12-07T20:31:58.143Z,29.10
2022-12-07T20:34:46.899Z,29.13
2022-12-07T20:37:30.788Z,29.83
2022-12-07T20:40:14.836Z,32.37
2022-12-07T20:42:58.788Z,29.77
2022-12-07T20:45:46.198Z,29.20
2022-12-07T20:48:30.063Z,29.10
2022-12-07T20:51:15.263Z,29.17
2022-12-07T20:53:59.382Z,27.47
2022-12-07T20:56:44.047Z,28.43
2022-12-07T20:59:27.836Z,28.00
2022-12-07T21:02:13.265Z,26.93
2022-12-07T21:04:57.301Z,26.67
2022-12-07T21:07:42.643Z,24.80
2022-12-07T21:10:26.621Z,27.23
2022-12-07T21:13:10.708Z,25.03
2022-12-07T21:15:55.649Z,26.27
2022-12-07T21:18:40.732Z,26.27
2022-12-07T21:21:25.255Z,25.83
2022-12-07T21:24:12.499Z,23.73
2022-12-07T21:26:56.561Z,24.40
2022-12-07T21:29:44.245Z,23.73
2022-12-07T21:32:29.098Z,24.20
2022-12-07T21:35:13.301Z,24.63
2022-12-07T21:37:57.251Z,24.83
2022-12-07T21:40:42.726Z,25.20
2022-12-07T21:43:27.123Z,24.37
2022-12-07T21:46:11.384Z,24.33
2022-12-07T21:48:57.489Z,25.13
2022-12-07T21:51:44.573Z,24.50
2022-12-07T21:54:30.455Z,24.10
2022-12-07T21:57:16.133Z,23.40
2022-12-07T22:00:00.463Z,26.07
2022-12-07T22:02:44.501Z,24.53
2022-12-07T22:05:28.585Z,28.03
2022-12-07T22:08:12.775Z,23.77
2022-12-07T22:11:03.291Z,24.80
2022-12-07T22:14:10.204Z,23.57
2022-12-07T22:16:55.316Z,26.77
2022-12-07T22:19:39.325Z,22.73
2022-12-07T22:22:23.387Z,25.30
2022-12-07T22:25:09.029Z,27.43
2022-12-07T22:27:53.027Z,24.83
2022-12-07T22:30:40.610Z,23.90
2022-12-07T22:33:24.646Z,26.03
2022-12-07T22:36:10.621Z,26.83
2022-12-07T22:38:54.557Z,24.57
2022-12-07T22:41:40.203Z,23.87
2022-12-07T22:44:24.365Z,30.00
2022-12-07T22:47:09.827Z,26.37
2022-12-07T22:49:53.763Z,26.47
2022-12-07T22:52:37.745Z,26.13
2022-12-07T22:55:21.899Z,26.57
2022-12-07T22:58:05.884Z,26.53
2022-12-07T23:00:49.999Z,27.13
2022-12-07T23:03:35.638Z,27.07
2022-12-07T23:06:22.054Z,27.23
2022-12-07T23:09:08.462Z,26.37
2022-12-07T23:12:09.916Z,27.70
2022-12-07T23:14:54.928Z,26.60
2022-12-07T23:17:39.247Z,26.27
2022-12-07T23:20:25.031Z,26.57
2022-12-07T23:23:09.184Z,27.03
2022-12-07T23:25:53.788Z,26.77
2022-12-07T23:28:38.552Z,26.23
2022-12-07T23:31:23.546Z,26.17
2022-12-07T23:34:07.802Z,26.10
2022-12-07T23:36:53.668Z,25.57
2022-12-07T23:39:37.800Z,25.67
2022-12-07T23:42:21.775Z,25.27
2022-12-07T23:45:06.502Z,27.27
2022-12-07T23:47:50.960Z,26.50
2022-12-07T23:50:36.694Z,24.73
2022-12-07T23:53:22.032Z,25.13
2022-12-07T23:56:06.483Z,24.37
2022-12-07T23:58:52.146Z,24.10
